Evanston Regional Hospital, WY

3:52 AM MDT on September 02, 2014 (GMT -0600)
Evanston-Uinta County Burns | Change Station
CLOSE
Current Station
Airport
Location: Evanston,
Elevation: 7142 ft
Nearby Weather Stations

Elev 7142 ft 41.27 °N, 111.03 °W | Updated 59 minutes ago

Clear
Clear
47 °F
Feels Like 47 °F
N
9
Wind Variable Wind from South

Today
High -- | Low -- °F
--% Chance of Precip.
Yesterday
High -- | Low -- °F
Precip. -- in
6:51 AM 7:54 PM
Waxing Crescent, 50% visible
Pressure 29.97 in
Visibility 10.0 miles
Clouds Clear
Dew Point 30 °F
Humidity 52%
Rainfall 0.00 in
Snow Depth Not available.
UV 0 out of 12
Pollen 8.00 out of 12
Air Quality Not available.
Flu Activity Not available.
METAR KEVW 020853Z AUTO 17008KT 10SM CLR 08/M01 A3020 RMK AO2 SLP149 T00831011 58009

More Conditions Fewer Conditions

Pressure 29.97 in
Visibility 10.0 miles
Clouds Clear
Dew Point 30 °F
Humidity 52%
Rainfall 0.00 in
Snow Depth Not available.
UV 0 out of 12
Pollen 8.00 out of 12
Air Quality Not available.
Flu Activity Not available.
METAR KEVW 020853Z AUTO 17008KT 10SM CLR 08/M01 A3020 RMK AO2 SLP149 T00831011 58009

More Conditions Fewer Conditions

10-Day Weather Forecast

Almanac

Astronomy

Sep. 02, 2014 Rise Set
Actual Time 6:51 AM MDT 7:54 PM MDT
Civil Twilight 6:23 AM MDT 8:23 PM MDT
Nautical Twilight 5:49 AM MDT 8:56 PM MDT
Astronomical Twilight 5:14 AM MDT 9:31 PM MDT
Moon 2:43 PM MDT No Moon Set
Length of Visible Light 14h 00m
Length of Day
13h 03m
Tomorrow will be 2m 39s shorter.
Waxing Crescent, 50% of the Moon is Illuminated
Today
Waxing Crescent
Sep 2
First Quarter
Sep 8
Full
Sep 15
Last Quarter
Sep 24
New

Today's Extremes

State Highs State Lows

Community

WunderPhotos

Upload Photos

1,749,587 photos uploaded!

WunderBlogs® & News

Nearby

Snow Depth

Station Depth Elevation
Hams Fork 0 in 7840 ft
Kelley R.S. 0 in 8180 ft
Salt River Summit 0 in 7600 ft
Spring Creek Divide 0 in 9000 ft
Blind Bull Summit 2 in 8900 ft

Earthquake Activity

City Distance Mag. Time & Date
No recent earthquake activity has been reported nearby.
Minimum magnitude displayed is 2.5.

Coastal Water Temperatures

Place Temperature
No Stations Reporting

Nearby Weather Stations